Geervliet — PCLI — position and weather

sailwx.info

Track history (hours):
 
Tides and Currents Weather Stations Pressure Air Temp Water Temp Dewpoint Dewpoint Depression Visibility Wind Speed Wind Dir Waves Ship Positions

Geervliet

Last reported at 2017-Feb-20 11:21 UTC. Time now 2017-Feb-23 04:44 UTC.
Position N 37°44' E 024°19'.

Length 86 m; draft 5.7 m.

Type: Ship. MMSI: 246803000.

Date/timePositionNaut miles runAvg speedWind from/ knotsBaromVisibWave heightAir tempDewpointWater temp
2017-Feb-20 11:21N 37°44' E 024°19'1010.0
2017-Feb-20 10:20N 37°36' E 024°11'460 9.0
2017-Feb-18 07:05N 36°39' E 014°39'510.1
2017-Feb-18 06:34N 36°40' E 014°33'10 9.9
2017-Feb-18 05:33N 36°42' E 014°21'10 9.6
2017-Feb-18 04:34N 36°45' E 014°09'10 9.4
2017-Feb-18 03:33N 36°47' E 013°57'10 9.6
2017-Feb-18 02:33N 36°49' E 013°46'24 9.8
2017-Feb-18 00:08N 36°55' E 013°17'9 9.4
2017-Feb-17 23:12N 36°57' E 013°06'11 9.7
2017-Feb-17 22:04N 36°59' E 012°53'  
2017-Feb-14 06:18N 36°02' W 004°56'1013.1
2017-Feb-14 05:33N 35°60' W 005°08'1212.3
2017-Feb-14 04:33N 35°59' W 005°23'1111.4
2017-Feb-14 03:33N 35°55' W 005°37'9 9.5
2017-Feb-14 02:33N 35°55' W 005°49'247 8.5
2017-Feb-12 21:32N 38°20' W 009°59'9 9.6
2017-Feb-12 20:33N 38°29' W 010°02'9 9.5
2017-Feb-12 19:34N 38°38' W 010°05'10 9.5
2017-Feb-12 18:33N 38°47' W 010°07'10 9.6
2017-Feb-12 17:33N 38°57' W 010°08'10 9.7
2017-Feb-12 16:33N 39°07' W 010°09'  
Track history (hours):
 
Tides and Currents Weather Stations Pressure Air Temp Water Temp Dewpoint Dewpoint Depression Visibility Wind Speed Wind Dir Waves Ship Positions

Geervliet

Last reported at 2017-Feb-20 11:21 UTC. Time now 2017-Feb-23 04:44 UTC.
Position N 37°44' E 024°19'.

Length 86 m; draft 5.7 m.

Type: Ship. MMSI: 246803000.

Date/timePositionNaut miles runAvg speedWind from/ knotsBaromVisibWave heightAir tempDewpointWater temp
2017-Feb-20 11:21N 37°44' E 024°19'1010.0
2017-Feb-20 10:20N 37°36' E 024°11'460 9.0
2017-Feb-18 07:05N 36°39' E 014°39'510.1
2017-Feb-18 06:34N 36°40' E 014°33'10 9.9
2017-Feb-18 05:33N 36°42' E 014°21'10 9.6
2017-Feb-18 04:34N 36°45' E 014°09'10 9.4
2017-Feb-18 03:33N 36°47' E 013°57'10 9.6
2017-Feb-18 02:33N 36°49' E 013°46'24 9.8
2017-Feb-18 00:08N 36°55' E 013°17'9 9.4
2017-Feb-17 23:12N 36°57' E 013°06'11 9.7
2017-Feb-17 22:04N 36°59' E 012°53'  
2017-Feb-14 06:18N 36°02' W 004°56'1013.1
2017-Feb-14 05:33N 35°60' W 005°08'1212.3
2017-Feb-14 04:33N 35°59' W 005°23'1111.4
2017-Feb-14 03:33N 35°55' W 005°37'9 9.5
2017-Feb-14 02:33N 35°55' W 005°49'247 8.5
2017-Feb-12 21:32N 38°20' W 009°59'9 9.6
2017-Feb-12 20:33N 38°29' W 010°02'9 9.5
2017-Feb-12 19:34N 38°38' W 010°05'10 9.5
2017-Feb-12 18:33N 38°47' W 010°07'10 9.6
2017-Feb-12 17:33N 38°57' W 010°08'10 9.7
2017-Feb-12 16:33N 39°07' W 010°09'  

Dump ship's entire track history